KTTD/TTD METAR and TAF weather

Enter ICAO airport designator
Station Type Date Time Source
KTTD METAR 2021/07/24 20:53 UTC NOAA

KTTD 242053Z VRB04KT 10SM CLR 30/13 A3005 RMK AO2 SLP176 T03000128 58022


Station Type Date Time Source
KTTD Decoded METAR 2021/07/24 20:53 UTC NOAA

PORTLAND-TROUTDALE AIRPORT, OR, United States (KTTD) 45-33N 122-25W 14M
Jul 24, 2021 - 04:53 PM EDT / 2021.07.24 2053 UTC
Wind: Variable at 5 MPH (4 KT):0
Visibility: 10 mile(s):0
Sky conditions: clear
Temperature: 86.0 F (30.0 C)
Dew Point: 55.0 F (12.8 C)
Relative Humidity: 34%
Pressure (altimeter): 30.05 in. Hg (1017 hPa)
Pressure tendency: 0.06 inches (2.2 hPa) lower than three hours ago
ob: KTTD 242053Z VRB04KT 10SM CLR 30/13 A3005 RMK AO2 SLP176 T03000128 58022
cycle: 21

Station Type Date Time Source
KTTD TAF 2021/07/24 18:27 UTC NOAA

TAF KTTD 241723Z 2418/2518 29005KT P6SM SKC

Example: see airport list